Time;durP1;ratioP1;P1;durP2;ratioP2;P2;SDS_P1;SDS_P2;PMS_P1;PMS_P2;Temp;Humidity;BMP_temperature;BMP_pressure;BME280_temperature;BME280_humidity;BME280_pressure;Samples;Min_cycle;Max_cycle;Signal;HPM_P1;HPM_P2
2022/09/13 00:00:52;;;;;;;61.00;4.73;;;;;;;;;;5074408;28;20444;-65
2022/09/13 00:03:19;;;;;;;62.77;5.27;;;;;;;;;;5074319;28;20487;-66
2022/09/13 00:05:46;;;;;;;59.77;4.37;;;;;;;;;;5074347;28;20454;-65
2022/09/13 00:08:14;;;;;;;61.90;4.83;;;;;;;;;;5074542;28;20448;-66
2022/09/13 00:10:42;;;;;;;61.70;4.63;;;;;;;;;;5074339;28;20451;-66
2022/09/13 00:13:10;;;;;;;64.30;5.70;;;;;;;;;;5074172;28;21006;-65
2022/09/13 00:15:43;;;;;;;62.70;4.37;;;;;;;;;;5072394;28;20455;-66
2022/09/13 00:18:10;;;;;;;60.67;4.53;;;;;;;;;;5074267;28;20456;-66
2022/09/13 00:20:37;;;;;;;60.93;5.10;;;;;;;;;;5073788;28;20455;-66
2022/09/13 00:23:04;;;;;;;60.20;4.60;;;;;;;;;;5073985;28;20498;-66
2022/09/13 00:25:31;;;;;;;60.57;5.17;;;;;;;;;;5074214;28;20529;-65
2022/09/13 00:27:58;;;;;;;60.10;4.37;;;;;;;;;;5074118;28;20448;-66
2022/09/13 00:30:25;;;;;;;59.97;4.60;;;;;;;;;;5073742;28;20974;-65
2022/09/13 00:32:54;;;;;;;60.73;4.23;;;;;;;;;;5073644;28;20930;-66
2022/09/13 00:35:22;;;;;;;59.97;4.07;;;;;;;;;;5073832;28;20464;-66
2022/09/13 00:37:49;;;;;;;60.73;4.60;;;;;;;;;;5073803;28;20533;-65
2022/09/13 00:40:17;;;;;;;60.80;4.23;;;;;;;;;;5073786;28;20454;-66
2022/09/13 00:42:44;;;;;;;62.43;4.93;;;;;;;;;;5073708;28;20479;-65
2022/09/13 00:45:18;;;;;;;60.77;4.43;;;;;;;;;;5073802;28;20453;-65
2022/09/13 00:47:48;;;;;;;60.10;4.40;;;;;;;;;;5071638;28;20967;-66
2022/09/13 00:50:19;;;;;;;59.37;4.03;;;;;;;;;;5073595;28;20457;-65
2022/09/13 00:52:49;;;;;;;60.00;4.00;;;;;;;;;;5073506;28;20455;-65
2022/09/13 00:55:19;;;;;;;60.77;4.53;;;;;;;;;;5073587;28;20964;-65
2022/09/13 00:57:46;;;;;;;61.00;5.30;;;;;;;;;;5073425;28;20457;-65
2022/09/13 01:00:15;;;;;;;64.40;4.73;;;;;;;;;;5073045;28;20954;-65
2022/09/13 01:02:44;;;;;;;60.43;4.60;;;;;;;;;;5072822;28;20488;-65
2022/09/13 01:05:11;;;;;;;60.07;4.40;;;;;;;;;;5073462;28;20444;-66
2022/09/13 01:07:40;;;;;;;60.60;4.57;;;;;;;;;;5073411;28;20455;-65
2022/09/13 01:10:08;;;;;;;61.13;4.40;;;;;;;;;;5072912;28;20524;-65
2022/09/13 01:12:37;;;;;;;61.20;4.67;;;;;;;;;;5073044;28;20452;-66
2022/09/13 01:15:05;;;;;;;60.43;4.77;;;;;;;;;;5073203;28;20533;-66
2022/09/13 01:17:33;;;;;;;60.47;4.93;;;;;;;;;;5073051;28;20448;-65
2022/09/13 01:20:00;;;;;;;59.90;4.60;;;;;;;;;;5072079;28;20454;-65
2022/09/13 01:22:46;;;;;;;59.80;4.07;;;;;;;;;;5072191;28;20491;-66
2022/09/13 01:25:26;;;;;;;63.33;4.07;;;;;;;;;;5073191;28;20450;-66
2022/09/13 01:28:05;;;;;;;60.83;4.83;;;;;;;;;;5073120;28;20507;-66
2022/09/13 01:30:36;;;;;;;60.20;4.30;;;;;;;;;;5054685;28;20956;-66
2022/09/13 01:33:10;;;;;;;60.60;4.30;;;;;;;;;;5053273;28;20487;-66
2022/09/13 01:35:48;;;;;;;60.50;4.70;;;;;;;;;;5052896;28;20469;-65
2022/09/13 01:38:22;;;;;;;60.90;4.60;;;;;;;;;;5050703;28;20460;-64
2022/09/13 01:40:57;;;;;;;64.47;4.80;;;;;;;;;;5052483;28;20448;-65
2022/09/13 01:43:28;;;;;;;60.57;4.80;;;;;;;;;;5052755;28;20542;-65
2022/09/13 01:46:04;;;;;;;60.50;4.30;;;;;;;;;;5052661;28;20448;-65
2022/09/13 01:48:35;;;;;;;60.73;4.43;;;;;;;;;;5052446;28;20448;-65
2022/09/13 01:51:05;;;;;;;60.00;4.40;;;;;;;;;;5052312;28;20511;-66
2022/09/13 01:53:35;;;;;;;61.50;4.63;;;;;;;;;;5060721;28;20465;-65
2022/09/13 01:56:05;;;;;;;60.50;4.17;;;;;;;;;;5072707;28;20445;-66
2022/09/13 01:58:37;;;;;;;61.60;5.30;;;;;;;;;;5072324;28;20821;-65
2022/09/13 02:01:08;;;;;;;60.10;4.70;;;;;;;;;;5072366;28;20446;-66
2022/09/13 02:03:39;;;;;;;64.20;5.00;;;;;;;;;;5072142;28;20463;-66
2022/09/13 02:06:08;;;;;;;61.30;4.70;;;;;;;;;;5072049;28;20463;-66
2022/09/13 02:08:38;;;;;;;60.53;4.60;;;;;;;;;;5071980;28;20447;-66
2022/09/13 02:11:09;;;;;;;60.50;4.90;;;;;;;;;;5072319;28;20542;-66
2022/09/13 02:13:37;;;;;;;59.90;4.30;;;;;;;;;;5071277;28;20487;-66
2022/09/13 02:16:09;;;;;;;61.07;4.80;;;;;;;;;;5072124;28;20460;-66
2022/09/13 02:18:37;;;;;;;61.40;4.57;;;;;;;;;;5071551;28;20451;-65
2022/09/13 02:21:08;;;;;;;60.53;4.50;;;;;;;;;;5072117;28;20436;-66
2022/09/13 02:23:39;;;;;;;60.87;4.50;;;;;;;;;;5072215;28;20464;-65
2022/09/13 02:26:07;;;;;;;62.33;5.37;;;;;;;;;;5070141;28;20451;-65
2022/09/13 02:28:37;;;;;;;61.47;5.10;;;;;;;;;;5071667;28;20447;-65
2022/09/13 02:31:05;;;;;;;60.17;4.50;;;;;;;;;;5071920;28;20447;-66
2022/09/13 02:33:36;;;;;;;61.47;4.70;;;;;;;;;;5070329;28;20483;-65
2022/09/13 02:36:05;;;;;;;59.93;4.63;;;;;;;;;;5051909;28;20441;-66
2022/09/13 02:38:34;;;;;;;60.90;5.20;;;;;;;;;;5051650;28;20448;-65
2022/09/13 02:41:02;;;;;;;64.53;4.37;;;;;;;;;;5051712;28;20448;-65
2022/09/13 02:43:32;;;;;;;60.87;4.77;;;;;;;;;;5051361;28;20464;-65
2022/09/13 02:46:03;;;;;;;61.47;4.60;;;;;;;;;;5051727;28;20457;-65
2022/09/13 02:48:37;;;;;;;60.00;4.10;;;;;;;;;;5051504;28;20444;-65
2022/09/13 02:51:08;;;;;;;60.50;4.43;;;;;;;;;;5051707;28;20460;-65
2022/09/13 02:53:39;;;;;;;64.10;4.60;;;;;;;;;;5051339;28;20580;-65
2022/09/13 02:56:11;;;;;;;60.67;4.40;;;;;;;;;;5051218;28;20498;-66
2022/09/13 02:58:43;;;;;;;61.20;5.10;;;;;;;;;;5062491;28;20463;-66
2022/09/13 03:01:10;;;;;;;60.27;4.47;;;;;;;;;;5071663;28;20485;-65
2022/09/13 03:03:37;;;;;;;61.37;4.67;;;;;;;;;;5071791;28;20998;-65
2022/09/13 03:06:05;;;;;;;60.77;4.63;;;;;;;;;;5071485;28;20454;-65
2022/09/13 03:08:33;;;;;;;60.27;4.30;;;;;;;;;;5070999;28;20451;-66
2022/09/13 03:11:03;;;;;;;59.60;4.33;;;;;;;;;;5071551;28;20448;-66
2022/09/13 03:13:45;;;;;;;60.73;4.60;;;;;;;;;;5071441;28;20487;-66
2022/09/13 03:16:19;;;;;;;61.17;4.80;;;;;;;;;;5069285;28;20464;-66
2022/09/13 03:18:51;;;;;;;60.60;4.97;;;;;;;;;;5071334;28;20450;-65
2022/09/13 03:21:24;;;;;;;61.17;4.60;;;;;;;;;;5071591;28;20444;-66
2022/09/13 03:23:57;;;;;;;60.20;4.80;;;;;;;;;;5071503;28;20463;-66
2022/09/13 03:26:26;;;;;;;59.87;4.67;;;;;;;;;;5075007;28;20447;-65
2022/09/13 03:29:04;;;;;;;60.27;4.40;;;;;;;;;;5074932;28;20444;-66
2022/09/13 03:31:33;;;;;;;63.57;4.50;;;;;;;;;;5074334;28;20822;-66
2022/09/13 03:34:04;;;;;;;59.93;4.20;;;;;;;;;;5075058;28;20502;-65
2022/09/13 03:36:35;;;;;;;63.47;5.20;;;;;;;;;;5075376;28;20454;-66
2022/09/13 03:39:08;;;;;;;61.77;4.70;;;;;;;;;;5074754;28;20443;-65
2022/09/13 03:41:38;;;;;;;60.73;4.80;;;;;;;;;;5074937;28;20443;-66
2022/09/13 03:44:06;;;;;;;62.97;5.13;;;;;;;;;;5074693;28;20473;-66
2022/09/13 03:46:35;;;;;;;61.67;4.63;;;;;;;;;;5074927;28;20443;-65
2022/09/13 03:49:03;;;;;;;63.97;4.07;;;;;;;;;;5074930;28;20799;-66
2022/09/13 03:51:33;;;;;;;60.60;4.93;;;;;;;;;;5074815;28;20454;-66
2022/09/13 03:54:01;;;;;;;65.50;4.90;;;;;;;;;;5074434;28;20983;-65
2022/09/13 03:56:29;;;;;;;60.63;4.73;;;;;;;;;;5074496;28;20454;-66
2022/09/13 04:01:59;;;;;;;61.50;5.20;;;;;;;;;;5072958;28;20426;-66
2022/09/13 04:04:26;;;;;;;60.83;5.00;;;;;;;;;;5072880;28;20497;-66
2022/09/13 04:06:55;;;;;;;61.37;5.30;;;;;;;;;;5074542;28;20442;-66
2022/09/13 04:09:22;;;;;;;61.50;4.87;;;;;;;;;;5074718;28;20450;-65
2022/09/13 04:11:49;;;;;;;61.43;5.63;;;;;;;;;;5074357;28;20440;-65
2022/09/13 04:14:17;;;;;;;61.87;5.27;;;;;;;;;;5074139;28;20490;-66
2022/09/13 04:16:44;;;;;;;60.27;4.53;;;;;;;;;;5074205;28;20451;-65
2022/09/13 04:19:11;;;;;;;61.00;4.70;;;;;;;;;;5073864;28;20451;-66
2022/09/13 04:21:38;;;;;;;61.67;4.70;;;;;;;;;;5074517;28;20443;-66
2022/09/13 04:24:07;;;;;;;60.27;4.53;;;;;;;;;;5074326;28;20468;-66
2022/09/13 04:26:34;;;;;;;61.20;4.80;;;;;;;;;;5074156;28;20448;-65
2022/09/13 04:29:01;;;;;;;61.90;5.03;;;;;;;;;;5073788;28;20882;-66
2022/09/13 04:31:28;;;;;;;61.17;4.43;;;;;;;;;;5073942;28;20454;-66
2022/09/13 04:33:56;;;;;;;61.97;5.37;;;;;;;;;;5073842;28;20491;-66
2022/09/13 04:36:23;;;;;;;60.70;4.27;;;;;;;;;;5070967;28;20455;-66
2022/09/13 04:38:50;;;;;;;62.00;4.67;;;;;;;;;;5073657;28;20550;-65
2022/09/13 04:41:18;;;;;;;61.50;4.87;;;;;;;;;;5073819;28;20953;-66
2022/09/13 04:43:49;;;;;;;60.87;4.97;;;;;;;;;;5073780;28;20466;-66
2022/09/13 04:46:16;;;;;;;60.20;4.10;;;;;;;;;;5073713;28;20538;-66
2022/09/13 04:48:43;;;;;;;59.90;4.50;;;;;;;;;;5073587;28;20455;-66
2022/09/13 04:51:11;;;;;;;59.20;4.13;;;;;;;;;;5073837;28;20604;-66
2022/09/13 04:53:38;;;;;;;59.97;4.30;;;;;;;;;;5073423;28;20487;-66
2022/09/13 04:56:06;;;;;;;61.27;5.10;;;;;;;;;;5073646;28;20448;-66
2022/09/13 04:58:34;;;;;;;64.73;4.60;;;;;;;;;;5073546;28;20451;-66
2022/09/13 05:01:02;;;;;;;60.67;4.60;;;;;;;;;;5073445;28;20455;-65
2022/09/13 05:03:30;;;;;;;60.03;4.30;;;;;;;;;;5073681;28;20498;-66
2022/09/13 05:06:01;;;;;;;61.20;4.43;;;;;;;;;;5073458;28;20456;-66
2022/09/13 05:08:28;;;;;;;60.90;4.60;;;;;;;;;;5070321;28;20466;-65
2022/09/13 05:10:55;;;;;;;61.37;5.20;;;;;;;;;;5073029;28;20935;-66
2022/09/13 05:13:22;;;;;;;61.37;4.63;;;;;;;;;;5073032;28;20456;-66
2022/09/13 05:15:51;;;;;;;61.77;5.07;;;;;;;;;;5073313;28;20457;-65
2022/09/13 05:18:18;;;;;;;61.97;4.90;;;;;;;;;;5073181;28;20439;-66
2022/09/13 05:20:45;;;;;;;62.07;5.00;;;;;;;;;;5072942;28;20448;-65
2022/09/13 05:23:12;;;;;;;61.10;5.17;;;;;;;;;;5073041;28;20576;-66
2022/09/13 05:25:39;;;;;;;61.10;5.00;;;;;;;;;;5073054;28;20447;-65
2022/09/13 05:28:06;;;;;;;65.00;5.00;;;;;;;;;;5067329;28;20459;-66
2022/09/13 05:30:33;;;;;;;60.23;4.57;;;;;;;;;;5068065;28;20460;-66
2022/09/13 05:33:03;;;;;;;62.27;5.13;;;;;;;;;;5072829;28;20831;-65
2022/09/13 05:35:30;;;;;;;61.43;5.00;;;;;;;;;;5070930;28;20856;-66
2022/09/13 05:37:57;;;;;;;60.57;5.10;;;;;;;;;;5053663;28;20471;-66
2022/09/13 05:40:24;;;;;;;60.40;4.47;;;;;;;;;;5059667;28;20456;-66
2022/09/13 05:42:53;;;;;;;60.33;5.00;;;;;;;;;;5072749;28;20830;-66
2022/09/13 05:45:20;;;;;;;60.40;5.30;;;;;;;;;;5072663;28;20436;-65
2022/09/13 05:47:50;;;;;;;61.00;5.20;;;;;;;;;;5072745;28;20443;-66
2022/09/13 05:50:19;;;;;;;60.97;5.07;;;;;;;;;;5072236;28;20451;-66
2022/09/13 05:52:51;;;;;;;60.30;4.60;;;;;;;;;;5072313;28;20455;-65
2022/09/13 05:55:18;;;;;;;60.50;4.90;;;;;;;;;;5072455;28;20488;-65
2022/09/13 05:57:46;;;;;;;64.17;5.67;;;;;;;;;;5072354;28;20448;-66
2022/09/13 06:00:13;;;;;;;60.80;5.33;;;;;;;;;;5072029;28;20484;-65
2022/09/13 06:02:41;;;;;;;62.00;5.70;;;;;;;;;;5072691;28;20457;-66
2022/09/13 06:05:09;;;;;;;63.17;5.23;;;;;;;;;;5072171;28;20446;-66
2022/09/13 06:07:37;;;;;;;60.30;4.70;;;;;;;;;;5072340;28;20454;-66
2022/09/13 06:10:04;;;;;;;61.73;4.70;;;;;;;;;;5071741;28;20737;-66
2022/09/13 06:12:32;;;;;;;60.10;4.83;;;;;;;;;;5070278;28;20460;-66
2022/09/13 06:14:59;;;;;;;60.43;4.47;;;;;;;;;;5071797;28;20484;-66
2022/09/13 06:17:26;;;;;;;60.27;4.97;;;;;;;;;;5071966;28;20456;-66
2022/09/13 06:19:53;;;;;;;60.53;4.70;;;;;;;;;;5071311;28;20449;-65
2022/09/13 06:22:20;;;;;;;60.00;4.40;;;;;;;;;;5072146;28;20446;-66
2022/09/13 06:24:48;;;;;;;60.50;4.23;;;;;;;;;;5072056;28;20473;-65
2022/09/13 06:27:15;;;;;;;59.53;4.10;;;;;;;;;;5071929;28;20452;-65
2022/09/13 06:29:43;;;;;;;59.80;4.40;;;;;;;;;;5071828;28;20462;-66
2022/09/13 06:32:10;;;;;;;59.77;4.00;;;;;;;;;;5071718;28;20482;-65
2022/09/13 06:34:37;;;;;;;59.30;4.00;;;;;;;;;;5071536;28;20497;-66
2022/09/13 06:37:04;;;;;;;59.90;4.43;;;;;;;;;;5071706;28;20449;-66
2022/09/13 06:39:33;;;;;;;60.37;4.47;;;;;;;;;;5071729;28;20451;-66
2022/09/13 06:42:01;;;;;;;59.50;4.43;;;;;;;;;;5071493;28;20813;-65
2022/09/13 06:44:29;;;;;;;59.30;3.87;;;;;;;;;;5068715;28;21011;-66
2022/09/13 06:46:56;;;;;;;63.00;4.13;;;;;;;;;;5071498;28;20455;-66
2022/09/13 06:49:24;;;;;;;59.90;4.07;;;;;;;;;;5071164;28;20937;-66
2022/09/13 06:51:51;;;;;;;59.90;4.70;;;;;;;;;;5071487;28;20458;-66
2022/09/13 06:54:18;;;;;;;60.67;4.63;;;;;;;;;;5071404;28;21029;-66
2022/09/13 06:56:45;;;;;;;59.70;4.13;;;;;;;;;;5073037;28;20483;-65
2022/09/13 06:59:14;;;;;;;59.00;3.87;;;;;;;;;;5069359;28;21039;-65
2022/09/13 07:01:42;;;;;;;62.40;4.40;;;;;;;;;;5071394;28;20451;-65
2022/09/13 07:04:10;;;;;;;59.60;4.00;;;;;;;;;;5071628;28;20466;-65
2022/09/13 07:06:38;;;;;;;59.90;4.37;;;;;;;;;;5071701;28;20839;-66
2022/09/13 07:09:06;;;;;;;59.97;4.37;;;;;;;;;;5071049;28;20451;-65
2022/09/13 07:11:34;;;;;;;61.00;5.03;;;;;;;;;;5071421;28;20458;-65
2022/09/13 07:14:02;;;;;;;61.87;4.67;;;;;;;;;;5071198;28;20834;-66
2022/09/13 07:16:31;;;;;;;60.07;4.33;;;;;;;;;;5069398;28;20559;-65
2022/09/13 07:18:59;;;;;;;59.97;4.30;;;;;;;;;;5071355;28;20479;-66
2022/09/13 07:21:27;;;;;;;59.90;4.03;;;;;;;;;;5071498;28;20822;-66
2022/09/13 07:23:55;;;;;;;60.17;4.70;;;;;;;;;;5071316;28;20464;-66
2022/09/13 07:26:22;;;;;;;60.17;4.27;;;;;;;;;;5071182;28;20887;-66
2022/09/13 07:28:51;;;;;;;60.10;4.20;;;;;;;;;;5070790;28;20454;-66
2022/09/13 07:31:19;;;;;;;59.83;4.40;;;;;;;;;;5070957;28;20557;-65
2022/09/13 07:33:48;;;;;;;59.23;3.87;;;;;;;;;;5071053;28;21020;-65
2022/09/13 07:36:15;;;;;;;60.20;4.83;;;;;;;;;;5071137;28;20989;-65
2022/09/13 07:38:44;;;;;;;59.53;4.30;;;;;;;;;;5070846;28;20453;-66
2022/09/13 07:41:13;;;;;;;59.70;4.20;;;;;;;;;;5070892;28;20500;-65
2022/09/13 07:43:40;;;;;;;59.40;3.63;;;;;;;;;;5071359;28;20474;-65
2022/09/13 07:46:08;;;;;;;59.63;4.50;;;;;;;;;;5071190;28;20459;-64
2022/09/13 07:48:36;;;;;;;59.73;3.63;;;;;;;;;;5070501;28;20959;-65
2022/09/13 07:51:05;;;;;;;59.50;3.93;;;;;;;;;;5071200;28;20457;-64
2022/09/13 07:53:34;;;;;;;62.03;4.53;;;;;;;;;;5070844;28;20478;-65
2022/09/13 07:56:02;;;;;;;59.67;3.80;;;;;;;;;;5070832;28;21029;-65
2022/09/13 07:58:29;;;;;;;60.70;4.10;;;;;;;;;;5070725;28;20446;-65
2022/09/13 08:01:05;;;;;;;60.07;3.83;;;;;;;;;;5071044;28;20454;-65
2022/09/13 08:03:32;;;;;;;59.33;3.33;;;;;;;;;;5070925;28;20477;-64
2022/09/13 08:06:00;;;;;;;59.47;3.80;;;;;;;;;;5070758;28;20444;-65
2022/09/13 08:08:28;;;;;;;58.97;3.30;;;;;;;;;;5070945;28;20500;-64
2022/09/13 08:10:55;;;;;;;59.20;3.30;;;;;;;;;;5071015;28;20450;-65
2022/09/13 08:13:23;;;;;;;59.50;4.27;;;;;;;;;;5073908;28;20474;-65
2022/09/13 08:15:50;;;;;;;59.77;3.63;;;;;;;;;;5074721;28;20479;-64
2022/09/13 08:18:17;;;;;;;59.60;3.43;;;;;;;;;;5074228;28;20454;-64
2022/09/13 08:20:44;;;;;;;59.10;3.47;;;;;;;;;;5073826;28;20473;-65
2022/09/13 08:23:12;;;;;;;59.00;3.47;;;;;;;;;;5074397;28;20463;-65
2022/09/13 08:25:41;;;;;;;59.20;3.57;;;;;;;;;;5071728;28;20451;-65
2022/09/13 08:28:09;;;;;;;59.27;3.47;;;;;;;;;;5074464;28;20444;-64
2022/09/13 08:30:37;;;;;;;59.67;3.47;;;;;;;;;;5073862;28;20458;-64
2022/09/13 08:33:05;;;;;;;60.67;3.10;;;;;;;;;;5074078;28;20475;-64
2022/09/13 08:35:33;;;;;;;58.67;3.10;;;;;;;;;;5074037;28;20499;-64
2022/09/13 08:38:01;;;;;;;63.00;3.40;;;;;;;;;;5074314;28;20443;-64
2022/09/13 08:40:29;;;;;;;58.97;3.03;;;;;;;;;;5073836;28;20459;-64
2022/09/13 08:43:02;;;;;;;61.13;3.10;;;;;;;;;;5073892;28;20443;-64
2022/09/13 08:45:30;;;;;;;58.10;2.83;;;;;;;;;;5073844;28;20454;-64
2022/09/13 08:47:59;;;;;;;59.20;3.30;;;;;;;;;;5073718;28;20456;-63
2022/09/13 08:50:27;;;;;;;59.30;3.13;;;;;;;;;;5073539;28;20447;-64
2022/09/13 08:53:01;;;;;;;60.90;3.20;;;;;;;;;;5073743;28;20443;-64
2022/09/13 08:55:37;;;;;;;59.37;2.83;;;;;;;;;;5070634;28;20488;-64
2022/09/13 08:58:12;;;;;;;58.30;2.70;;;;;;;;;;5073506;28;20462;-64
2022/09/13 09:00:40;;;;;;;59.00;3.47;;;;;;;;;;5073655;28;20472;-65
2022/09/13 09:03:20;;;;;;;58.80;2.70;;;;;;;;;;5073637;28;21137;-65
2022/09/13 09:05:48;;;;;;;59.37;2.87;;;;;;;;;;5073587;28;20832;-64
2022/09/13 09:08:19;;;;;;;58.77;3.20;;;;;;;;;;5073556;28;20447;-65
2022/09/13 09:10:48;;;;;;;59.40;3.40;;;;;;;;;;5072890;28;20939;-64
2022/09/13 09:13:19;;;;;;;59.00;3.60;;;;;;;;;;5073462;28;20548;-64
2022/09/13 09:15:48;;;;;;;59.77;2.93;;;;;;;;;;5073207;28;20850;-64
2022/09/13 09:18:19;;;;;;;60.40;3.20;;;;;;;;;;5073313;28;20455;-65
2022/09/13 09:20:47;;;;;;;58.77;3.20;;;;;;;;;;5072857;28;20447;-64
2022/09/13 09:23:15;;;;;;;59.13;3.23;;;;;;;;;;5072424;28;20478;-64
2022/09/13 09:25:43;;;;;;;58.60;3.33;;;;;;;;;;5073171;28;20526;-64
2022/09/13 09:28:12;;;;;;;58.80;3.00;;;;;;;;;;5070246;28;20455;-65
2022/09/13 09:30:43;;;;;;;57.90;2.93;;;;;;;;;;5073098;28;20474;-65
2022/09/13 09:33:20;;;;;;;58.10;2.83;;;;;;;;;;5072958;28;20471;-65
2022/09/13 09:35:52;;;;;;;58.90;3.03;;;;;;;;;;5072569;28;20526;-64
2022/09/13 09:38:43;;;;;;;58.40;2.87;;;;;;;;;;5072708;28;20517;-65
2022/09/13 09:41:15;;;;;;;58.10;2.43;;;;;;;;;;5057704;28;20495;-65
2022/09/13 09:43:44;;;;;;;57.73;2.57;;;;;;;;;;5072635;28;20463;-65
2022/09/13 09:46:16;;;;;;;58.60;2.90;;;;;;;;;;5072423;28;20820;-65
2022/09/13 09:48:46;;;;;;;59.80;2.50;;;;;;;;;;5072697;28;20447;-65
2022/09/13 09:51:14;;;;;;;58.40;2.53;;;;;;;;;;5072581;28;21029;-64
2022/09/13 09:53:46;;;;;;;59.50;2.40;;;;;;;;;;5072246;28;20471;-64
2022/09/13 09:56:23;;;;;;;62.80;2.63;;;;;;;;;;5072348;28;20519;-64
2022/09/13 09:58:51;;;;;;;58.50;2.40;;;;;;;;;;5069565;28;20447;-65
2022/09/13 10:01:23;;;;;;;58.17;2.43;;;;;;;;;;5072650;28;20542;-65
2022/09/13 10:03:51;;;;;;;58.10;2.60;;;;;;;;;;5072419;28;20658;-65
2022/09/13 10:06:20;;;;;;;58.00;2.70;;;;;;;;;;5072236;28;20443;-65
2022/09/13 10:08:49;;;;;;;58.80;2.60;;;;;;;;;;5071702;28;20454;-64
2022/09/13 10:11:21;;;;;;;58.17;2.60;;;;;;;;;;5072536;28;20890;-65
2022/09/13 10:13:58;;;;;;;58.47;2.67;;;;;;;;;;5071871;28;20471;-64
2022/09/13 10:16:28;;;;;;;57.90;2.57;;;;;;;;;;5072082;28;20482;-65
2022/09/13 10:18:55;;;;;;;60.77;2.47;;;;;;;;;;5071845;28;20451;-65
2022/09/13 10:21:24;;;;;;;57.87;2.73;;;;;;;;;;5071887;28;20466;-65
2022/09/13 10:23:52;;;;;;;58.67;2.60;;;;;;;;;;5072063;28;20532;-65
2022/09/13 10:26:20;;;;;;;60.73;2.80;;;;;;;;;;5071887;28;20937;-65
2022/09/13 10:28:51;;;;;;;57.90;2.60;;;;;;;;;;5071617;28;20648;-66
2022/09/13 10:31:20;;;;;;;57.17;2.37;;;;;;;;;;5069241;28;20451;-66
2022/09/13 10:33:53;;;;;;;59.83;2.40;;;;;;;;;;5071322;28;20988;-65
2022/09/13 10:36:22;;;;;;;57.30;2.30;;;;;;;;;;5071546;28;20490;-65
2022/09/13 10:38:53;;;;;;;58.90;2.70;;;;;;;;;;5071653;28;20446;-65
2022/09/13 10:41:24;;;;;;;56.90;2.10;;;;;;;;;;5071954;28;20804;-66
2022/09/13 10:43:57;;;;;;;56.77;2.03;;;;;;;;;;5071680;28;20835;-66
2022/09/13 10:46:25;;;;;;;59.17;2.40;;;;;;;;;;5071644;28;20847;-66
2022/09/13 10:48:54;;;;;;;56.97;2.30;;;;;;;;;;5071497;28;20451;-65
2022/09/13 10:51:36;;;;;;;57.00;2.00;;;;;;;;;;5071810;28;20501;-66
2022/09/13 10:54:24;;;;;;;56.73;2.10;;;;;;;;;;5071450;28;20971;-65
2022/09/13 10:56:52;;;;;;;57.73;2.33;;;;;;;;;;5066606;28;20487;-65
2022/09/13 10:59:23;;;;;;;56.90;1.90;;;;;;;;;;5071164;28;20932;-65
2022/09/13 11:01:57;;;;;;;56.80;2.00;;;;;;;;;;5071525;28;20448;-65
2022/09/13 11:04:34;;;;;;;56.87;2.13;;;;;;;;;;5069400;28;21001;-65
2022/09/13 11:07:07;;;;;;;57.30;2.07;;;;;;;;;;5070943;28;20451;-65
2022/09/13 11:09:36;;;;;;;58.07;2.20;;;;;;;;;;5071091;28;20557;-65
2022/09/13 11:12:09;;;;;;;56.97;2.20;;;;;;;;;;5071405;28;20455;-65
2022/09/13 11:14:43;;;;;;;57.13;2.07;;;;;;;;;;5071868;28;20467;-65
2022/09/13 11:17:17;;;;;;;57.20;2.03;;;;;;;;;;5071373;28;21014;-66
2022/09/13 11:19:54;;;;;;;57.33;2.23;;;;;;;;;;5070934;28;20443;-66
2022/09/13 11:22:27;;;;;;;56.87;2.13;;;;;;;;;;5071539;28;20530;-65
2022/09/13 11:25:00;;;;;;;56.77;1.87;;;;;;;;;;5071401;28;20486;-65
2022/09/13 11:27:32;;;;;;;56.47;1.80;;;;;;;;;;5071652;28;20444;-65
2022/09/13 11:30:05;;;;;;;56.77;2.10;;;;;;;;;;5070998;28;20451;-66
2022/09/13 11:32:39;;;;;;;56.97;2.10;;;;;;;;;;5071188;28;20819;-66
2022/09/13 11:35:20;;;;;;;57.30;2.27;;;;;;;;;;5068618;28;20481;-65
2022/09/13 11:37:51;;;;;;;56.60;1.90;;;;;;;;;;5071158;28;20935;-66
2022/09/13 11:40:33;;;;;;;57.77;2.00;;;;;;;;;;5070834;28;20450;-65
2022/09/13 11:43:06;;;;;;;57.30;1.97;;;;;;;;;;5069049;28;20467;-65
2022/09/13 11:45:36;;;;;;;56.70;2.10;;;;;;;;;;5071647;28;20447;-66
2022/09/13 11:48:16;;;;;;;56.70;1.87;;;;;;;;;;5075125;28;20462;-65
2022/09/13 11:50:48;;;;;;;56.80;2.10;;;;;;;;;;5072254;28;20471;-65
2022/09/13 11:53:26;;;;;;;56.97;2.27;;;;;;;;;;5074628;28;20463;-66
2022/09/13 11:55:55;;;;;;;56.80;2.53;;;;;;;;;;5074880;28;20447;-65
2022/09/13 11:58:23;;;;;;;57.10;1.93;;;;;;;;;;5074742;28;20473;-65
2022/09/13 12:00:52;;;;;;;56.67;2.07;;;;;;;;;;5074485;28;20525;-65
2022/09/13 12:03:23;;;;;;;57.50;2.17;;;;;;;;;;5074646;28;20473;-66
2022/09/13 12:05:55;;;;;;;56.40;1.90;;;;;;;;;;5074366;28;20487;-65
2022/09/13 12:08:23;;;;;;;57.40;2.10;;;;;;;;;;5074551;28;20443;-65
2022/09/13 12:10:51;;;;;;;57.07;2.00;;;;;;;;;;5074390;28;20826;-66
2022/09/13 12:13:21;;;;;;;57.30;2.00;;;;;;;;;;5074506;28;20467;-66
2022/09/13 12:15:50;;;;;;;56.90;2.00;;;;;;;;;;5074424;28;20447;-65
2022/09/13 12:18:21;;;;;;;56.40;2.10;;;;;;;;;;5074075;28;20455;-65
2022/09/13 12:20:51;;;;;;;56.87;2.10;;;;;;;;;;5070800;28;20451;-66
2022/09/13 12:23:21;;;;;;;56.57;1.90;;;;;;;;;;5071499;28;20994;-66
2022/09/13 12:25:51;;;;;;;56.40;1.67;;;;;;;;;;5074700;28;20455;-66
2022/09/13 12:28:21;;;;;;;56.87;2.03;;;;;;;;;;5074015;28;20447;-65
2022/09/13 12:30:51;;;;;;;57.60;1.83;;;;;;;;;;5073716;28;21032;-65
2022/09/13 12:33:18;;;;;;;56.80;1.90;;;;;;;;;;5074312;28;20489;-66
2022/09/13 12:35:50;;;;;;;56.80;1.90;;;;;;;;;;5074357;28;20551;-65
2022/09/13 12:38:28;;;;;;;58.60;1.80;;;;;;;;;;5073972;28;20439;-66
2022/09/13 12:41:09;;;;;;;56.77;1.90;;;;;;;;;;5073693;28;21026;-66
2022/09/13 12:43:48;;;;;;;57.37;2.30;;;;;;;;;;5073946;28;20467;-65
2022/09/13 12:46:21;;;;;;;56.80;1.90;;;;;;;;;;5074186;28;20486;-65
2022/09/13 12:48:59;;;;;;;56.97;2.03;;;;;;;;;;5073576;28;20443;-65
2022/09/13 12:51:33;;;;;;;57.20;1.97;;;;;;;;;;5073575;28;20938;-65
2022/09/13 12:54:21;;;;;;;56.87;2.10;;;;;;;;;;5073963;28;20475;-65
2022/09/13 12:56:59;;;;;;;56.67;1.70;;;;;;;;;;5071522;28;20443;-66
2022/09/13 12:59:34;;;;;;;57.87;2.03;;;;;;;;;;5072907;28;20451;-66
2022/09/13 13:02:02;;;;;;;56.87;1.77;;;;;;;;;;5073423;28;20443;-65
2022/09/13 13:04:30;;;;;;;56.70;1.87;;;;;;;;;;5073571;28;20550;-65
2022/09/13 13:06:59;;;;;;;56.83;2.13;;;;;;;;;;5073291;28;21034;-66
2022/09/13 13:09:31;;;;;;;57.87;1.83;;;;;;;;;;5073225;28;20454;-65
2022/09/13 13:12:00;;;;;;;56.67;1.90;;;;;;;;;;5073372;28;20439;-65
2022/09/13 13:14:45;;;;;;;56.70;1.80;;;;;;;;;;5073022;28;20474;-65
2022/09/13 13:17:30;;;;;;;56.87;1.97;;;;;;;;;;5073385;28;20522;-65
2022/09/13 13:19:57;;;;;;;57.73;1.80;;;;;;;;;;5072851;28;20447;-65
2022/09/13 13:22:43;;;;;;;58.47;2.20;;;;;;;;;;5073029;28;20439;-65
2022/09/13 13:25:31;;;;;;;57.00;2.03;;;;;;;;;;5073062;28;20443;-65
2022/09/13 13:27:59;;;;;;;57.27;1.93;;;;;;;;;;5070585;28;20494;-65
2022/09/13 13:30:51;;;;;;;56.90;1.93;;;;;;;;;;5072672;28;20513;-65
2022/09/13 13:33:20;;;;;;;56.80;1.87;;;;;;;;;;5072682;28;20474;-65
2022/09/13 13:35:47;;;;;;;57.07;1.80;;;;;;;;;;5072981;28;20508;-65
2022/09/13 13:38:16;;;;;;;57.57;2.13;;;;;;;;;;5072841;28;20959;-65
2022/09/13 13:40:43;;;;;;;58.17;2.10;;;;;;;;;;5072574;28;20450;-65
2022/09/13 13:43:31;;;;;;;57.40;2.10;;;;;;;;;;5072677;28;20852;-65
2022/09/13 13:46:20;;;;;;;57.07;2.00;;;;;;;;;;5067651;28;20471;-65
2022/09/13 13:48:47;;;;;;;57.10;1.80;;;;;;;;;;5072064;28;20455;-65
2022/09/13 13:51:17;;;;;;;57.00;1.90;;;;;;;;;;5072146;28;20800;-65
2022/09/13 13:53:45;;;;;;;57.07;1.93;;;;;;;;;;5071948;28;20473;-66
2022/09/13 13:56:19;;;;;;;56.37;1.80;;;;;;;;;;5072306;28;20454;-65
2022/09/13 13:58:48;;;;;;;56.57;2.03;;;;;;;;;;5069452;28;20454;-63
2022/09/13 14:01:18;;;;;;;57.00;2.00;;;;;;;;;;5072422;28;20450;-65
2022/09/13 14:04:06;;;;;;;57.00;2.27;;;;;;;;;;5072331;28;20512;-65
2022/09/13 14:06:35;;;;;;;56.90;1.87;;;;;;;;;;5046665;28;20483;-65
2022/09/13 14:09:06;;;;;;;56.77;1.90;;;;;;;;;;5072140;28;20449;-65
2022/09/13 14:11:40;;;;;;;58.27;1.63;;;;;;;;;;5072600;28;20451;-65
2022/09/13 14:14:16;;;;;;;57.03;1.90;;;;;;;;;;5072134;28;20477;-65
2022/09/13 14:16:51;;;;;;;57.30;2.20;;;;;;;;;;5072137;28;20479;-65
2022/09/13 14:19:25;;;;;;;57.17;2.00;;;;;;;;;;5071812;28;20455;-65
2022/09/13 14:22:06;;;;;;;57.67;2.10;;;;;;;;;;5072120;28;20446;-64
2022/09/13 14:24:37;;;;;;;59.00;2.17;;;;;;;;;;5071970;28;20531;-65
2022/09/13 14:27:04;;;;;;;57.07;2.00;;;;;;;;;;5071927;28;20483;-65
2022/09/13 14:29:31;;;;;;;56.93;2.00;;;;;;;;;;5069704;28;20451;-65
2022/09/13 14:32:04;;;;;;;57.53;2.07;;;;;;;;;;5072047;28;20443;-65
2022/09/13 14:34:32;;;;;;;57.40;2.20;;;;;;;;;;5071748;28;20487;-65
2022/09/13 14:37:00;;;;;;;56.90;1.80;;;;;;;;;;5071898;28;20435;-65
2022/09/13 14:39:29;;;;;;;56.57;1.57;;;;;;;;;;5071330;28;20471;-66
2022/09/13 14:42:00;;;;;;;56.67;1.90;;;;;;;;;;5071559;28;20456;-65
2022/09/13 14:44:28;;;;;;;60.50;2.00;;;;;;;;;;5071788;28;20462;-65
2022/09/13 14:46:58;;;;;;;57.20;2.13;;;;;;;;;;5071637;28;21013;-65
2022/09/13 14:49:28;;;;;;;56.77;1.80;;;;;;;;;;5071438;28;20452;-65
2022/09/13 14:51:56;;;;;;;56.73;1.83;;;;;;;;;;5071697;28;20455;-65